Melrose, MN (56352)

2:41 AM CST on February 08, 2016 (GMT -0600)
Sauk Centre | | Change Station
CLOSE
Current Station
Airport
Location: Sauk Centre,
Elevation: 1240 ft
Nearby Weather Stations
Active Advisory: Winter Weather Advisory

Elev 1240 ft 45.71 °N, 94.93 °W | Updated 8 minutes ago

Overcast
Overcast
9 °F
Feels Like -10 °F
N
20
Wind Variable Wind from NNW
Gusts 29 mph

Today
High -- | Low -- °F
--% Chance of Precip.
Yesterday
High -- | Low -- °F
Precip. -- in
Pressure 29.88 in
Visibility 2.5 miles
Clouds Scattered Clouds 1600 ft
Overcast 2300 ft
Windchill -10 °F
Dew Point 4 °F
Humidity 81%
Rainfall 0.00 in
Snow Depth Not available.
7:32 AM 5:35 PM
Waning Crescent, 0% visible
METAR KD39 080833Z AUTO 33017G25KT 2 1/2SM -SN SCT016 OVC023 M13/M15 A2988 RMK AO2 VIS 1 1/2V5 T11271153
Pressure 29.88 in
Visibility 2.5 miles
Clouds Scattered Clouds 1600 ft
Overcast 2300 ft
Windchill -10 °F
Dew Point 4 °F
Humidity 81%
Rainfall 0.00 in
Snow Depth Not available.
7:32 AM 5:35 PM
Waning Crescent, 0% visible
METAR KD39 080833Z AUTO 33017G25KT 2 1/2SM -SN SCT016 OVC023 M13/M15 A2988 RMK AO2 VIS 1 1/2V5 T11271153

10-Day Weather Forecast

Almanac

Astronomy

Feb. 08, 2016 Rise Set
Actual Time
Civil Twilight
Nautical Twilight
Astronomical Twilight
Moon
Length of Visible Light
Length of Day
Tomorrow will be .
, % of the Moon is Illuminated

Today's Extremes

State Highs State Lows

Community

WunderPhotos

Upload Photos

1,891,412 photos uploaded!

WunderBlog® & News

Nearby

Air Quality

  Air Quality AQ Index Pollutant
Not available.

Snow Depth

Station Depth Elevation

Earthquake Activity

City Distance Mag. Time & Date
Minimum magnitude displayed is 2.5.

Coastal Water Temperatures

Place Temperature

Stations

Nearby Weather Stations

Station Location Temp. Windchill Dew Point Humidity Wind Precip. Elev Updated Type
                   

Watches & Warnings

Winter Weather Advisory
Issued: 8:21 PM CST Feb. 7, 2016 – National Weather Service

... Winter Weather Advisory remains in effect until noon CST
Monday...

* expect expect occasional light snow through Monday morning.

* Total snow accumulations of up to 1 inch are expected.

* Winds gusting as high as 50 mph will cause widespread blowing
and drifting snow.

* Plan on slippery Road conditions.

Precautionary/preparedness actions...

A Winter Weather Advisory for snow means periods of snow will
cause primarily travel difficulties. Be prepared for snow covered
roads and limited visibilities... and use caution while driving.
The latest Road conditions for the state you are calling from can
be obtained by calling 5 1 1.